Elmira, MI

2:45 PM EDT on July 07, 2015 (GMT -0400)
National Weather Service | | Change Station
CLOSE
Current Station
Personal Weather Station
Location: Gaylord, MI
Elevation: 1465 ft
Nearby Weather Stations

Elev 1465 ft 44.91 °N, 84.72 °W | Updated 43 seconds ago

Overcast
Overcast
60.5 °F
Feels Like 60.5 °F
N
9.0
Wind Variable Wind from NW
Gusts 12.0 mph

Today
High -- | Low -- °F
--% Chance of Precip.
Yesterday
High -- | Low -- °F
Precip. -- in
6:00 AM 9:27 PM
Waning Gibbous, 62% visible
Pressure 29.96 in
Visibility 10.0 miles
Clouds Few 2300 ft
Overcast 3100 ft
Dew Point 52 °F
Humidity 74%
Rainfall 1.23 in
Snow Depth Not available.
UV 5.4 out of 12
Pollen .60 out of 12
Air Quality Not available.
Flu Activity Not available.
SPECI KGLR 071807Z AUTO 32009G14KT 10SM FEW023 OVC031 16/11 A2996 RMK AO2 T01560106

More Conditions Fewer Conditions

Pressure 29.96 in
Visibility 10.0 miles
Clouds Few 2300 ft
Overcast 3100 ft
Dew Point 52 °F
Humidity 74%
Rainfall 1.23 in
Snow Depth Not available.
UV 5.4 out of 12
Pollen .60 out of 12
Air Quality Not available.
Flu Activity Not available.
SPECI KGLR 071807Z AUTO 32009G14KT 10SM FEW023 OVC031 16/11 A2996 RMK AO2 T01560106

More Conditions Fewer Conditions

Nowcast | as of 2:00 PM EDT on July 7, 2015

At 3 PM...mostly cloudy. Temperature 62. North winds 15 mph. At 5 PM...mostly cloudy. Temperature 64. North winds 16 mph. At 7 PM...mostly clear. Temperature 62. North winds 14 mph. At 9 PM...mostly clear. Temperature 58. North winds 8 mph.

×

10-Day Weather Forecast

×

Almanac

Astronomy

Jul. 07, 2015 Rise Set
Actual Time
Civil Twilight
Nautical Twilight
Astronomical Twilight
Moon
Length of Visible Light
Length of Day
Tomorrow will be .
, % of the Moon is Illuminated

Today's Extremes

State Highs State Lows

Community

WunderPhotos

Upload Photos

1,835,868 photos uploaded!

WunderBlogs® & News

Nearby

Air Quality

  Air Quality AQ Index Pollutant
Not available.

Snow Depth

Station Depth Elevation

Earthquake Activity

City Distance Mag. Time & Date
Minimum magnitude displayed is 2.5.

Coastal Water Temperatures

Place Temperature

Stations

Nearby Weather Stations

Station Location Temp. Windchill Dew Point Humidity Wind Precip. Elev Updated Type